createdAt,value
2019-05-15T00:00:49.243Z,9.50
2019-05-15T00:03:19.552Z,9.40
2019-05-15T00:05:45.069Z,9.60
2019-05-15T00:08:11.919Z,9.60
2019-05-15T00:10:39.130Z,9.60
2019-05-15T00:13:05.953Z,9.60
2019-05-15T00:15:32.527Z,9.90
2019-05-15T00:17:58.983Z,9.80
2019-05-15T00:20:25.525Z,9.90
2019-05-15T00:22:52.361Z,10.10
2019-05-15T00:25:19.004Z,9.90
2019-05-15T00:27:45.482Z,9.90
2019-05-15T00:30:12.240Z,9.90
2019-05-15T00:32:39.493Z,9.80
2019-05-15T00:35:06.360Z,9.80
2019-05-15T00:37:32.928Z,10.00
2019-05-15T00:39:59.329Z,9.80
2019-05-15T00:42:25.756Z,9.60
2019-05-15T00:44:52.317Z,9.60
2019-05-15T00:47:18.687Z,9.70
2019-05-15T00:49:45.137Z,9.50
2019-05-15T00:52:12.387Z,9.70
2019-05-15T00:54:38.948Z,9.50
2019-05-15T00:57:05.548Z,9.50
2019-05-15T00:59:32.009Z,9.40
2019-05-15T01:01:59.447Z,9.10
2019-05-15T01:04:28.054Z,9.10
2019-05-15T01:06:54.490Z,9.30
2019-05-15T01:09:20.960Z,8.80
2019-05-15T01:11:48.758Z,8.70
2019-05-15T01:14:15.384Z,9.00
2019-05-15T01:16:42.192Z,9.00
2019-05-15T01:19:09.201Z,8.90
2019-05-15T01:21:35.808Z,9.10
2019-05-15T01:24:02.492Z,9.10
2019-05-15T01:26:28.935Z,9.10
2019-05-15T01:28:55.413Z,9.00
2019-05-15T01:31:21.965Z,9.30
2019-05-15T01:33:48.488Z,8.70
2019-05-15T01:36:15.040Z,9.20
2019-05-15T01:38:41.587Z,8.90
2019-05-15T01:41:09.722Z,9.00
2019-05-15T01:43:38.063Z,8.80
2019-05-15T01:46:05.001Z,8.80
2019-05-15T01:48:31.769Z,8.90
2019-05-15T01:50:58.709Z,9.00
2019-05-15T01:53:25.284Z,9.10
2019-05-15T01:55:52.559Z,9.00
2019-05-15T01:58:19.217Z,8.90
2019-05-15T02:00:48.203Z,9.20
2019-05-15T02:03:14.168Z,9.20
2019-05-15T02:05:41.205Z,8.70
2019-05-15T02:08:08.319Z,8.90
2019-05-15T02:10:34.937Z,9.00
2019-05-15T02:13:01.735Z,8.90
2019-05-15T02:15:28.651Z,8.90
2019-05-15T02:17:55.744Z,8.80
2019-05-15T02:20:22.218Z,8.80
2019-05-15T02:22:48.772Z,8.50
2019-05-15T02:25:15.377Z,8.70
2019-05-15T02:27:41.807Z,8.60
2019-05-15T02:30:22.499Z,9.00
2019-05-15T02:32:39.428Z,8.40
2019-05-15T02:35:05.407Z,8.90
2019-05-15T02:37:32.080Z,8.60
2019-05-15T02:39:59.029Z,8.40
2019-05-15T02:42:28.733Z,8.40
2019-05-15T02:44:53.910Z,8.40
2019-05-15T02:47:20.455Z,8.80
2019-05-15T02:49:48.620Z,8.60
2019-05-15T02:52:15.184Z,8.50
2019-05-15T02:54:41.668Z,8.40
2019-05-15T02:57:09.830Z,8.60
2019-05-15T02:59:39.342Z,8.50
2019-05-15T03:02:05.153Z,8.00
2019-05-15T03:04:31.599Z,8.10
2019-05-15T03:07:00.309Z,8.20
2019-05-15T03:09:29.449Z,7.90
2019-05-15T03:11:55.113Z,8.00
2019-05-15T03:14:21.799Z,8.00
2019-05-15T03:16:49.790Z,8.10
2019-05-15T03:19:19.264Z,8.10
2019-05-15T03:21:45.064Z,8.30
2019-05-15T03:24:11.617Z,8.10
2019-05-15T03:26:39.410Z,8.20
2019-05-15T03:29:09.492Z,8.10
2019-05-15T03:31:50.782Z,8.00
2019-05-15T03:34:03.963Z,8.10
2019-05-15T03:36:31.929Z,8.10
2019-05-15T03:38:59.372Z,7.70
2019-05-15T03:41:25.926Z,7.70
2019-05-15T03:43:52.706Z,7.60
2019-05-15T03:46:20.161Z,7.60
2019-05-15T03:48:48.756Z,7.50
2019-05-15T03:51:15.230Z,7.30
2019-05-15T03:53:41.710Z,7.70
2019-05-15T03:56:09.743Z,7.40
2019-05-15T03:58:39.745Z,7.80
2019-05-15T04:01:25.485Z,7.70
2019-05-15T04:03:33.529Z,7.80
2019-05-15T04:06:00.627Z,7.60
2019-05-15T04:08:29.905Z,7.90
2019-05-15T04:10:55.554Z,7.90
2019-05-15T04:13:22.092Z,7.80
2019-05-15T04:15:50.149Z,7.80
2019-05-15T04:18:19.689Z,8.00
2019-05-15T04:20:45.217Z,8.30
2019-05-15T04:23:15.467Z,8.10
2019-05-15T04:25:43.845Z,7.80
2019-05-15T04:28:11.704Z,8.20
2019-05-15T04:30:39.307Z,7.90
2019-05-15T04:33:09.079Z,7.80
2019-05-15T04:35:34.484Z,7.70
2019-05-15T04:38:00.866Z,7.60
2019-05-15T04:40:29.943Z,7.80
2019-05-15T04:42:58.997Z,7.70
2019-05-15T04:45:24.284Z,7.60
2019-05-15T04:47:50.897Z,7.40
2019-05-15T04:50:19.301Z,7.80
2019-05-15T04:52:45.811Z,7.80
2019-05-15T04:55:12.601Z,7.80
2019-05-15T04:57:40.437Z,7.70
2019-05-15T05:00:09.633Z,7.80
2019-05-15T05:02:39.890Z,8.10
2019-05-15T05:05:05.817Z,8.00
2019-05-15T05:07:33.276Z,8.10
2019-05-15T05:09:59.951Z,8.20
2019-05-15T05:12:28.950Z,8.10
2019-05-15T05:14:54.994Z,8.10
2019-05-15T05:17:21.765Z,8.20
2019-05-15T05:19:51.261Z,8.60
2019-05-15T05:22:18.694Z,8.40
2019-05-15T05:24:45.168Z,8.50
2019-05-15T05:27:11.920Z,8.40
2019-05-15T05:29:38.719Z,8.90
2019-05-15T05:32:05.347Z,9.00
2019-05-15T05:34:31.901Z,8.70
2019-05-15T05:36:58.956Z,8.90
2019-05-15T05:39:25.527Z,8.70
2019-05-15T05:41:51.922Z,9.10
2019-05-15T05:44:18.883Z,9.30
2019-05-15T05:46:45.653Z,9.20
2019-05-15T05:49:12.129Z,9.10
2019-05-15T05:51:38.815Z,9.40
2019-05-15T05:54:05.644Z,9.60
2019-05-15T05:56:32.088Z,10.00
2019-05-15T05:58:58.772Z,9.90
2019-05-15T06:01:28.029Z,10.00
2019-05-15T06:03:53.633Z,10.20
2019-05-15T06:06:20.206Z,10.50
2019-05-15T06:08:47.983Z,10.80
2019-05-15T06:11:15.087Z,10.30
2019-05-15T06:13:41.555Z,10.90
2019-05-15T06:16:08.590Z,10.90
2019-05-15T06:18:35.201Z,11.10
2019-05-15T06:21:01.679Z,11.00
2019-05-15T06:23:33.607Z,10.70
2019-05-15T06:25:59.011Z,11.10
2019-05-15T06:28:44.648Z,11.20
2019-05-15T06:31:11.027Z,11.50
2019-05-15T06:33:38.407Z,11.30
2019-05-15T06:36:05.239Z,11.60
2019-05-15T06:38:31.600Z,11.70
2019-05-15T06:40:58.347Z,11.70
2019-05-15T06:43:24.841Z,11.70
2019-05-15T06:45:51.344Z,11.70
2019-05-15T06:48:18.435Z,12.20
2019-05-15T06:50:45.088Z,12.00
2019-05-15T06:53:11.544Z,12.10
2019-05-15T06:55:38.810Z,12.50
2019-05-15T06:58:05.771Z,12.50
2019-05-15T07:00:32.420Z,12.60
2019-05-15T07:02:59.369Z,12.50
2019-05-15T07:05:26.007Z,13.00
2019-05-15T07:07:53.162Z,12.80
2019-05-15T07:10:19.812Z,12.80
2019-05-15T07:12:50.768Z,12.50
2019-05-15T07:15:15.646Z,12.50
2019-05-15T07:17:42.581Z,12.90
2019-05-15T07:20:10.238Z,12.80
2019-05-15T07:22:39.061Z,12.90
2019-05-15T07:25:08.719Z,13.40
2019-05-15T07:27:35.060Z,13.30
2019-05-15T07:30:02.441Z,13.40
2019-05-15T07:32:29.003Z,13.40
2019-05-15T07:34:57.684Z,13.40
2019-05-15T07:37:23.853Z,13.30
2019-05-15T07:39:50.352Z,13.50
2019-05-15T07:42:18.436Z,14.00
2019-05-15T07:44:48.028Z,13.90
2019-05-15T07:47:14.118Z,13.90
2019-05-15T07:49:40.708Z,14.10
2019-05-15T07:52:08.595Z,14.00
2019-05-15T07:54:35.307Z,14.50
2019-05-15T07:57:01.780Z,14.40
2019-05-15T07:59:28.337Z,14.40
2019-05-15T08:01:54.813Z,14.60
2019-05-15T08:04:28.715Z,14.60
2019-05-15T08:06:49.984Z,14.60
2019-05-15T08:09:17.979Z,14.90
2019-05-15T08:11:44.516Z,15.10
2019-05-15T08:14:11.335Z,14.50
2019-05-15T08:16:39.617Z,15.20
2019-05-15T08:19:08.439Z,15.70
2019-05-15T08:21:34.356Z,15.70
2019-05-15T08:24:00.923Z,16.20
2019-05-15T08:26:28.293Z,16.80
2019-05-15T08:28:55.215Z,17.80
2019-05-15T08:31:21.577Z,18.80
2019-05-15T08:33:48.332Z,19.70
2019-05-15T08:36:14.895Z,21.30
2019-05-15T08:38:41.464Z,21.40
2019-05-15T08:41:11.409Z,21.00
2019-05-15T08:43:38.231Z,22.40
2019-05-15T08:46:08.010Z,22.00
2019-05-15T08:48:33.822Z,22.40
2019-05-15T08:51:00.741Z,23.80
2019-05-15T08:53:28.512Z,25.60
2019-05-15T08:55:55.378Z,25.30
2019-05-15T08:58:21.860Z,26.20
2019-05-15T09:00:52.474Z,25.70
2019-05-15T09:03:18.327Z,24.50
2019-05-15T09:05:44.987Z,24.20
2019-05-15T09:08:11.479Z,24.30
2019-05-15T09:10:38.485Z,24.10
2019-05-15T09:13:05.371Z,24.70
2019-05-15T09:15:31.935Z,24.40
2019-05-15T09:18:11.130Z,24.20
2019-05-15T09:20:28.756Z,22.80
2019-05-15T09:22:55.096Z,24.00
2019-05-15T09:25:21.541Z,24.20
2019-05-15T09:27:48.810Z,24.00
2019-05-15T09:30:18.084Z,23.90
2019-05-15T09:32:43.744Z,23.20
2019-05-15T09:35:14.080Z,23.70
2019-05-15T09:37:40.553Z,23.40
2019-05-15T09:40:08.798Z,23.00
2019-05-15T09:42:38.659Z,23.50
2019-05-15T09:45:05.974Z,22.70
2019-05-15T09:47:32.876Z,22.50
2019-05-15T09:49:59.718Z,22.70
2019-05-15T09:52:26.175Z,23.60
2019-05-15T09:54:52.894Z,24.60
2019-05-15T09:57:19.736Z,23.50
2019-05-15T09:59:48.811Z,23.30
2019-05-15T10:02:15.165Z,24.40
2019-05-15T10:04:42.111Z,26.10
2019-05-15T10:07:08.776Z,25.20
2019-05-15T10:09:35.552Z,25.30
2019-05-15T10:12:03.667Z,24.30
2019-05-15T10:14:31.752Z,24.10
2019-05-15T10:16:58.504Z,25.00
2019-05-15T10:19:25.179Z,26.00
2019-05-15T10:21:53.347Z,26.30
2019-05-15T10:24:20.037Z,26.50
2019-05-15T10:26:48.892Z,25.00
2019-05-15T10:29:14.956Z,26.80
2019-05-15T10:31:41.412Z,26.00
2019-05-15T10:34:09.171Z,26.20
2019-05-15T10:36:38.519Z,26.60
2019-05-15T10:39:08.397Z,26.60
2019-05-15T10:41:34.687Z,26.10
2019-05-15T10:44:01.843Z,27.00
2019-05-15T10:46:28.416Z,27.60
2019-05-15T10:48:54.963Z,27.70
2019-05-15T10:51:21.439Z,27.20
2019-05-15T10:53:48.778Z,27.00
2019-05-15T10:56:15.453Z,28.10
2019-05-15T10:58:41.907Z,27.40
2019-05-15T11:01:11.209Z,25.60
2019-05-15T11:03:39.312Z,24.60
2019-05-15T11:06:05.433Z,26.30
2019-05-15T11:08:32.176Z,25.90
2019-05-15T11:10:58.765Z,26.00
2019-05-15T11:13:25.324Z,25.80
2019-05-15T11:15:52.335Z,24.60
2019-05-15T11:18:18.904Z,25.40
2019-05-15T11:20:48.304Z,26.80
2019-05-15T11:23:19.487Z,26.00
2019-05-15T11:25:45.823Z,26.20
2019-05-15T11:28:13.419Z,27.20
2019-05-15T11:30:40.463Z,28.10
2019-05-15T11:33:09.650Z,27.20
2019-05-15T11:35:36.091Z,28.70
2019-05-15T11:38:02.747Z,27.80
2019-05-15T11:40:29.315Z,26.50
2019-05-15T11:42:56.122Z,25.50
2019-05-15T11:45:22.989Z,25.20
2019-05-15T11:47:49.904Z,25.10
2019-05-15T11:50:19.982Z,25.90
2019-05-15T11:52:45.214Z,27.40
2019-05-15T11:55:12.284Z,27.30
2019-05-15T11:57:46.598Z,26.70
2019-05-15T12:00:14.878Z,26.80
2019-05-15T12:02:38.402Z,26.50
2019-05-15T12:05:08.960Z,27.00
2019-05-15T12:07:34.693Z,25.80
2019-05-15T12:10:01.155Z,27.00
2019-05-15T12:12:31.828Z,27.70
2019-05-15T12:14:56.332Z,26.80
2019-05-15T12:17:22.905Z,27.20
2019-05-15T12:19:55.023Z,27.00
2019-05-15T12:22:17.725Z,27.20
2019-05-15T12:24:44.432Z,28.20
2019-05-15T12:29:39.962Z,25.60
2019-05-15T12:32:25.342Z,25.10
2019-05-15T12:34:35.381Z,24.60
2019-05-15T12:37:02.325Z,25.50
2019-05-15T12:39:30.433Z,25.80
2019-05-15T13:01:44.353Z,26.80
2019-05-15T13:04:10.824Z,25.80
2019-05-15T13:06:48.113Z,25.30
2019-05-15T13:09:08.406Z,26.00
2019-05-15T13:11:34.780Z,25.40
2019-05-15T13:14:01.819Z,25.70
2019-05-15T13:16:28.262Z,25.60
2019-05-15T13:18:55.041Z,25.20
2019-05-15T13:21:21.516Z,25.80
2019-05-15T13:23:48.234Z,26.30
2019-05-15T13:26:23.562Z,25.80
2019-05-15T13:28:43.743Z,25.10
2019-05-15T13:31:10.223Z,24.90
2019-05-15T13:33:38.626Z,24.20
2019-05-15T13:36:05.071Z,24.10
2019-05-15T13:38:31.526Z,23.80
2019-05-15T13:40:58.966Z,23.80
2019-05-15T13:43:25.880Z,23.80
2019-05-15T13:45:52.772Z,24.00
2019-05-15T13:48:19.959Z,23.90
2019-05-15T13:50:48.255Z,24.50
2019-05-15T13:53:14.856Z,24.30
2019-05-15T13:55:42.923Z,24.70
2019-05-15T13:58:09.624Z,24.80
2019-05-15T14:00:39.055Z,24.60
2019-05-15T14:03:04.992Z,24.50
2019-05-15T14:05:31.641Z,24.40
2019-05-15T14:07:58.386Z,23.90
2019-05-15T14:10:25.048Z,25.00
2019-05-15T14:12:51.403Z,24.20
2019-05-15T14:15:18.114Z,23.80
2019-05-15T14:17:44.908Z,23.30
2019-05-15T14:20:12.261Z,22.90
2019-05-15T14:22:39.143Z,23.00
2019-05-15T14:25:08.788Z,23.90
2019-05-15T14:27:36.069Z,23.80
2019-05-15T14:30:05.739Z,23.60
2019-05-15T14:32:38.255Z,23.80
2019-05-15T14:35:00.572Z,23.10
2019-05-15T14:37:28.603Z,23.10
2019-05-15T14:39:57.892Z,23.30
2019-05-15T14:42:24.017Z,23.00
2019-05-15T14:44:50.751Z,22.30
2019-05-15T14:47:19.196Z,21.90
2019-05-15T14:49:46.090Z,22.10
2019-05-15T14:52:14.069Z,21.80
2019-05-15T14:54:40.865Z,22.10
2019-05-15T14:57:08.699Z,22.10
2019-05-15T14:59:35.362Z,21.70
2019-05-15T15:02:03.049Z,21.10
2019-05-15T15:04:29.573Z,20.90
2019-05-15T15:06:58.036Z,20.90
2019-05-15T15:09:24.770Z,21.00
2019-05-15T15:11:51.737Z,21.00
2019-05-15T15:14:18.480Z,20.80
2019-05-15T15:16:44.998Z,20.70
2019-05-15T15:19:11.999Z,20.70
2019-05-15T15:21:38.656Z,21.20
2019-05-15T15:24:05.307Z,21.40
2019-05-15T15:26:31.852Z,20.90
2019-05-15T15:28:59.022Z,20.80
2019-05-15T15:31:25.490Z,20.80
2019-05-15T15:33:52.135Z,21.10
2019-05-15T15:36:18.575Z,20.40
2019-05-15T15:38:45.459Z,20.50
2019-05-15T15:41:12.032Z,20.60
2019-05-15T15:43:38.852Z,20.50
2019-05-15T15:46:05.436Z,20.80
2019-05-15T15:48:31.971Z,20.40
2019-05-15T15:50:58.800Z,20.00
2019-05-15T15:53:25.611Z,20.00
2019-05-15T15:55:52.365Z,19.80
2019-05-15T15:58:20.115Z,20.40
2019-05-15T16:00:48.848Z,19.30
2019-05-15T16:03:15.136Z,19.80
2019-05-15T16:05:41.721Z,19.30
2019-05-15T16:08:08.645Z,19.50
2019-05-15T16:10:37.746Z,18.90
2019-05-15T16:13:03.792Z,19.20
2019-05-15T16:15:30.579Z,19.00
2019-05-15T16:17:59.265Z,19.00
2019-05-15T16:20:25.291Z,19.10
2019-05-15T16:22:52.130Z,18.60
2019-05-15T16:25:18.786Z,19.00
2019-05-15T16:27:45.452Z,19.30
2019-05-15T16:30:12.414Z,19.10
2019-05-15T16:32:40.566Z,18.80
2019-05-15T16:35:08.234Z,18.30
2019-05-15T16:37:35.293Z,18.70
2019-05-15T16:40:04.860Z,18.80
2019-05-15T16:42:31.596Z,19.00
2019-05-15T16:44:58.504Z,18.50
2019-05-15T16:47:25.059Z,18.30
2019-05-15T16:49:51.543Z,18.40
2019-05-15T16:52:18.253Z,18.30
2019-05-15T16:54:45.072Z,18.10
2019-05-15T16:57:11.532Z,18.30
2019-05-15T16:59:38.997Z,18.00
2019-05-15T17:02:08.484Z,18.30
2019-05-15T17:04:34.097Z,18.00
2019-05-15T17:07:00.593Z,18.20
2019-05-15T17:09:28.074Z,17.60
2019-05-15T17:11:54.731Z,17.50
2019-05-15T17:14:21.487Z,17.60
2019-05-15T17:16:48.160Z,17.80
2019-05-15T17:19:14.817Z,18.00
2019-05-15T17:21:41.292Z,17.80
2019-05-15T17:24:08.879Z,18.20
2019-05-15T17:26:35.791Z,18.00
2019-05-15T17:29:02.434Z,17.60
2019-05-15T17:31:29.101Z,17.80
2019-05-15T17:33:58.051Z,17.70
2019-05-15T17:36:24.337Z,17.70
2019-05-15T17:38:50.918Z,17.30
2019-05-15T17:41:17.587Z,17.20
2019-05-15T17:43:44.405Z,17.20
2019-05-15T17:46:11.354Z,17.00
2019-05-15T17:48:38.854Z,16.80
2019-05-15T17:51:05.701Z,17.20
2019-05-15T17:53:32.478Z,17.20
2019-05-15T17:55:59.039Z,16.80
2019-05-15T17:58:25.626Z,17.00
2019-05-15T18:00:52.413Z,16.90
2019-05-15T18:03:19.229Z,16.30
2019-05-15T18:05:48.279Z,16.70
2019-05-15T18:08:14.373Z,16.50
2019-05-15T18:10:40.769Z,16.40
2019-05-15T18:13:08.984Z,16.30
2019-05-15T18:15:38.385Z,16.30
2019-05-15T18:18:04.516Z,16.50
2019-05-15T18:20:31.097Z,16.40
2019-05-15T18:22:59.119Z,16.30
2019-05-15T18:25:25.940Z,16.20
2019-05-15T18:27:52.402Z,16.00
2019-05-15T18:30:19.186Z,15.80
2019-05-15T18:32:48.458Z,16.00
2019-05-15T18:35:14.127Z,15.80
2019-05-15T18:37:40.793Z,15.90
2019-05-15T18:40:10.032Z,15.80
2019-05-15T18:42:38.626Z,15.80
2019-05-15T18:45:07.064Z,15.60
2019-05-15T18:47:33.647Z,15.40
2019-05-15T18:50:05.659Z,15.60
2019-05-15T18:52:28.853Z,15.20
2019-05-15T18:54:55.362Z,15.10
2019-05-15T18:57:21.933Z,15.20
2019-05-15T18:59:48.779Z,15.10
2019-05-15T19:02:19.042Z,15.10
2019-05-15T19:04:44.241Z,15.10
2019-05-15T19:07:10.834Z,15.20
2019-05-15T19:09:38.620Z,15.20
2019-05-15T19:12:05.778Z,15.00
2019-05-15T19:14:32.359Z,15.20
2019-05-15T19:16:59.264Z,14.60
2019-05-15T19:19:28.115Z,15.00
2019-05-15T19:22:14.013Z,14.70
2019-05-15T19:24:40.606Z,14.30
2019-05-15T19:27:08.001Z,14.70
2019-05-15T19:29:34.533Z,14.60
2019-05-15T19:32:00.985Z,14.30
2019-05-15T19:34:28.135Z,14.20
2019-05-15T19:36:54.737Z,14.20
2019-05-15T19:39:21.276Z,14.60
2019-05-15T19:41:47.788Z,14.40
2019-05-15T19:44:14.447Z,14.00
2019-05-15T19:46:40.921Z,14.10
2019-05-15T19:49:08.745Z,14.00
2019-05-15T19:51:35.352Z,14.10
2019-05-15T19:54:01.808Z,13.70
2019-05-15T19:56:28.545Z,14.10
2019-05-15T19:58:54.991Z,13.80
2019-05-15T20:01:21.491Z,13.50
2019-05-15T20:03:52.869Z,13.60
2019-05-15T20:06:18.679Z,13.50
2019-05-15T20:08:44.812Z,13.40
2019-05-15T20:11:11.665Z,13.40
2019-05-15T20:13:38.440Z,13.50
2019-05-15T20:16:05.293Z,13.40
2019-05-15T20:18:31.889Z,13.10
2019-05-15T20:20:58.608Z,13.60
2019-05-15T20:23:25.412Z,13.40
2019-05-15T20:25:51.968Z,13.60
2019-05-15T20:28:19.117Z,13.30
2019-05-15T20:30:48.089Z,13.00
2019-05-15T20:33:14.075Z,12.90
2019-05-15T20:35:41.007Z,13.00
2019-05-15T20:38:07.464Z,13.10
2019-05-15T20:40:33.959Z,12.90
2019-05-15T20:43:00.424Z,12.90
2019-05-15T20:45:29.246Z,12.90
2019-05-15T20:47:55.361Z,12.90
2019-05-15T20:50:21.940Z,12.60
2019-05-15T20:52:49.172Z,12.60
2019-05-15T20:55:16.081Z,12.60
2019-05-15T20:57:42.536Z,12.60
2019-05-15T21:00:10.630Z,12.40
2019-05-15T21:02:38.074Z,12.50
2019-05-15T21:05:05.127Z,12.50
2019-05-15T21:07:38.535Z,12.60
2019-05-15T21:10:00.061Z,12.30
2019-05-15T21:12:29.410Z,12.00
2019-05-15T21:14:54.904Z,12.10
2019-05-15T21:17:21.396Z,12.20
2019-05-15T21:19:48.913Z,12.20
2019-05-15T21:22:35.589Z,12.10
2019-05-15T21:25:02.948Z,11.80
2019-05-15T21:27:32.642Z,12.00
2019-05-15T21:29:59.214Z,12.10
2019-05-15T21:32:28.095Z,11.70
2019-05-15T21:34:54.302Z,11.90
2019-05-15T21:37:20.757Z,12.00
2019-05-15T21:39:48.494Z,11.90
2019-05-15T21:42:18.238Z,12.20
2019-05-15T21:44:44.433Z,12.20
2019-05-15T21:47:12.229Z,12.10
2019-05-15T21:49:39.786Z,12.20
2019-05-15T21:52:07.655Z,12.30
2019-05-15T21:54:35.944Z,12.50
2019-05-15T21:57:24.926Z,12.50
2019-05-15T21:59:34.196Z,12.60
2019-05-15T22:02:01.170Z,12.30
2019-05-15T22:04:30.257Z,12.30
2019-05-15T22:06:58.426Z,12.40
2019-05-15T22:09:28.933Z,12.60
2019-05-15T22:11:58.381Z,12.00
2019-05-15T22:14:24.464Z,12.20
2019-05-15T22:16:51.370Z,12.10
2019-05-15T22:19:20.790Z,12.00
2019-05-15T22:21:48.989Z,12.00
2019-05-15T22:24:18.208Z,11.50
2019-05-15T22:26:45.461Z,11.70
2019-05-15T22:29:13.444Z,11.70
2019-05-15T22:31:41.520Z,11.50
2019-05-15T22:34:08.595Z,11.60
2019-05-15T22:36:35.657Z,11.60
2019-05-15T22:39:08.438Z,11.70
2019-05-15T22:41:35.239Z,11.50
2019-05-15T22:44:02.404Z,11.30
2019-05-15T22:46:29.307Z,11.10
2019-05-15T22:48:58.886Z,11.20
2019-05-15T22:51:25.063Z,11.40
2019-05-15T22:53:51.736Z,11.40
2019-05-15T22:56:18.403Z,11.20
2019-05-15T22:58:45.490Z,11.70
2019-05-15T23:01:12.355Z,11.70
2019-05-15T23:03:40.817Z,11.70
2019-05-15T23:06:08.316Z,11.40
2019-05-15T23:08:35.470Z,11.60
2019-05-15T23:11:02.427Z,11.70
2019-05-15T23:13:29.330Z,11.60
2019-05-15T23:15:58.345Z,11.60
2019-05-15T23:18:24.776Z,11.70
2019-05-15T23:20:51.631Z,11.70
2019-05-15T23:23:19.428Z,11.50
2019-05-15T23:25:48.561Z,11.70
2019-05-15T23:28:15.983Z,11.60
2019-05-15T23:30:42.532Z,11.60
2019-05-15T23:33:10.101Z,11.10
2019-05-15T23:35:40.785Z,11.60
2019-05-15T23:38:08.300Z,11.70
2019-05-15T23:40:35.545Z,11.30
2019-05-15T23:43:03.726Z,11.10
2019-05-15T23:45:30.767Z,11.10
2019-05-15T23:47:58.003Z,11.30
2019-05-15T23:50:25.577Z,11.30
2019-05-15T23:52:52.491Z,11.30
2019-05-15T23:55:19.481Z,11.00
2019-05-15T23:57:48.471Z,11.00
